West Parishville, New York
Current Conditions -  °F | °C
As of 11:53 PM on Friday 31 Oct 2014 (Local Time) from KMSS Reporting Station
Overcast Overcast  
Wind Chill: 33°   Ceiling: 5500
Heat Index: 40°   Visibility: 10mi
Dew Point: 28°   Wind: 10mph
Humidity: 63%   Direction: 70°ENE
Pressure: 30.1"   Gusts: NA
Location:  44.6469°N, 74.9157°W
Report Text: KMSS 010353Z AUTO 07009KT 10SM OVC055 04/M02 A3010 RMK AO2 SLP196 T00441022
Loading
Personal Weather Stations






























Interactive Weather Map
Tropical Storm Tracking
New forecast layout! Learn more

10-Day Weather Forecast

Advertisements
Track Severe Weather on mobile